createdAt,value
2023-02-02T00:01:30.237Z,245.63
2023-02-02T00:04:00.702Z,271.30
2023-02-02T00:08:57.297Z,240.80
2023-02-02T00:11:24.784Z,240.48
2023-02-02T00:13:53.097Z,241.50
2023-02-02T00:16:29.463Z,239.13
2023-02-02T00:18:58.867Z,239.18
2023-02-02T00:21:26.271Z,229.30
2023-02-02T00:23:53.588Z,216.90
2023-02-02T00:26:21.698Z,212.00
2023-02-02T00:28:48.896Z,214.65
2023-02-02T00:31:16.131Z,221.27
2023-02-02T00:33:47.348Z,235.43
2023-02-02T00:36:14.850Z,260.40
2023-02-02T00:38:42.047Z,274.92
2023-02-02T00:41:09.248Z,279.67
2023-02-02T00:43:36.553Z,286.10
2023-02-02T00:46:03.911Z,292.35
2023-02-02T00:48:32.642Z,298.42
2023-02-02T00:50:59.750Z,338.05
2023-02-02T00:53:26.909Z,354.95
2023-02-02T00:55:54.165Z,336.00
2023-02-02T00:58:22.039Z,344.77
2023-02-02T01:00:51.507Z,344.90
2023-02-02T01:03:18.720Z,306.88
2023-02-02T01:05:45.869Z,265.90
2023-02-02T01:08:13.079Z,261.23
2023-02-02T01:10:40.206Z,264.13
2023-02-02T01:13:07.426Z,287.02
2023-02-02T01:15:34.570Z,252.05
2023-02-02T01:18:01.757Z,267.40
2023-02-02T01:20:29.484Z,285.73
2023-02-02T01:22:56.536Z,297.60
2023-02-02T01:25:24.009Z,297.52
2023-02-02T01:27:51.348Z,301.63
2023-02-02T01:30:18.657Z,287.92
2023-02-02T01:32:45.771Z,266.73
2023-02-02T01:35:12.903Z,262.15
2023-02-02T01:37:40.031Z,267.80
2023-02-02T01:40:08.034Z,264.85
2023-02-02T01:42:35.201Z,254.38
2023-02-02T01:45:14.445Z,246.77
2023-02-02T01:47:50.409Z,246.57
2023-02-02T01:50:17.943Z,242.75
2023-02-02T01:52:47.354Z,247.32
2023-02-02T01:55:15.682Z,235.45
2023-02-02T01:57:46.049Z,228.75
2023-02-02T02:00:15.256Z,260.60
2023-02-02T02:02:46.936Z,275.55
2023-02-02T02:05:14.717Z,282.52
2023-02-02T02:07:42.226Z,267.90
2023-02-02T02:10:09.939Z,250.63
2023-02-02T02:12:37.102Z,215.30
2023-02-02T02:15:23.292Z,232.70
2023-02-02T02:18:09.209Z,238.57
2023-02-02T02:21:17.347Z,240.48
2023-02-02T02:24:15.314Z,220.77
2023-02-02T02:26:51.147Z,216.93
2023-02-02T02:29:36.102Z,217.48
2023-02-02T02:32:19.582Z,218.82
2023-02-02T02:35:08.389Z,209.98
2023-02-02T02:37:55.593Z,196.75
2023-02-02T02:40:29.958Z,200.40
2023-02-02T02:42:59.663Z,197.20
2023-02-02T02:45:27.529Z,190.75
2023-02-02T02:47:55.089Z,172.73
2023-02-02T02:50:22.701Z,163.40
2023-02-02T02:52:50.967Z,143.65
2023-02-02T02:55:18.142Z,154.20
2023-02-02T02:58:05.338Z,148.80
2023-02-02T03:01:15.332Z,151.85
2023-02-02T03:04:13.325Z,171.68
2023-02-02T03:06:49.328Z,168.75
2023-02-02T03:09:22.350Z,167.35
2023-02-02T03:11:49.359Z,159.77
2023-02-02T03:14:16.413Z,167.10
2023-02-02T03:16:43.463Z,167.77
2023-02-02T03:19:10.639Z,169.35
2023-02-02T03:21:37.754Z,175.73
2023-02-02T03:24:05.159Z,171.50
2023-02-02T03:26:32.675Z,161.57
2023-02-02T03:28:59.918Z,159.18
2023-02-02T03:31:27.323Z,154.00
2023-02-02T03:33:55.257Z,163.55
2023-02-02T03:36:22.586Z,171.00
2023-02-02T03:38:49.796Z,167.90
2023-02-02T03:41:17.098Z,180.02
2023-02-02T03:43:44.260Z,173.20
2023-02-02T03:46:11.456Z,168.93
2023-02-02T03:48:39.316Z,159.80
2023-02-02T03:51:11.791Z,154.88
2023-02-02T03:53:39.725Z,148.15
2023-02-02T03:56:07.260Z,139.45
2023-02-02T03:58:34.331Z,117.45
2023-02-02T04:01:05.519Z,122.10
2023-02-02T04:03:33.014Z,114.07
2023-02-02T04:06:00.440Z,116.70
2023-02-02T04:08:28.626Z,106.13
2023-02-02T04:10:55.724Z,118.78
2023-02-02T04:13:22.759Z,113.82
2023-02-02T04:15:58.057Z,106.43
2023-02-02T04:18:25.229Z,109.93
2023-02-02T04:20:59.882Z,113.35
2023-02-02T04:23:27.312Z,112.93
2023-02-02T04:25:54.451Z,112.30
2023-02-02T04:28:23.974Z,119.60
2023-02-02T04:30:51.750Z,116.83
2023-02-02T04:33:19.180Z,115.35
2023-02-02T04:35:46.452Z,112.82
2023-02-02T04:38:13.597Z,118.28
2023-02-02T04:40:41.617Z,117.82
2023-02-02T04:43:08.729Z,113.25
2023-02-02T04:45:36.001Z,117.55
2023-02-02T04:48:03.333Z,119.63
2023-02-02T04:50:30.661Z,125.60
2023-02-02T04:52:58.110Z,124.60
2023-02-02T04:55:25.561Z,120.40
2023-02-02T04:57:53.103Z,140.18
2023-02-02T05:00:20.451Z,129.25
2023-02-02T05:02:47.926Z,127.07
2023-02-02T05:05:15.270Z,131.20
2023-02-02T05:07:42.525Z,129.30
2023-02-02T05:10:10.593Z,142.60
2023-02-02T05:12:37.797Z,144.35
2023-02-02T05:15:05.864Z,143.35
2023-02-02T05:17:33.237Z,130.13
2023-02-02T05:20:00.785Z,147.75
2023-02-02T05:22:29.084Z,182.60
2023-02-02T05:24:58.351Z,189.90
2023-02-02T05:27:26.066Z,222.15
2023-02-02T05:29:53.307Z,302.05
2023-02-02T05:32:23.118Z,301.08
2023-02-02T05:34:50.371Z,279.55
2023-02-02T05:37:17.765Z,222.25
2023-02-02T05:39:44.936Z,190.98
2023-02-02T05:42:12.071Z,182.07
2023-02-02T05:44:39.210Z,153.98
2023-02-02T05:47:06.346Z,175.45
2023-02-02T05:49:33.457Z,175.60
2023-02-02T05:52:00.835Z,182.15
2023-02-02T05:54:28.077Z,210.45
2023-02-02T05:56:56.170Z,185.75
2023-02-02T05:59:23.524Z,190.10
2023-02-02T06:01:50.675Z,198.48
2023-02-02T06:04:18.046Z,191.40
2023-02-02T06:06:45.946Z,194.60
2023-02-02T06:09:13.188Z,201.50
2023-02-02T06:11:40.504Z,198.48
2023-02-02T06:14:08.214Z,206.55
2023-02-02T06:16:35.497Z,202.25
2023-02-02T06:19:02.736Z,192.57
2023-02-02T06:21:31.719Z,191.80
2023-02-02T06:23:59.014Z,179.25
2023-02-02T06:26:27.280Z,192.35
2023-02-02T06:28:54.942Z,191.20
2023-02-02T06:31:22.497Z,184.95
2023-02-02T06:33:56.247Z,176.40
2023-02-02T06:36:27.447Z,181.38
2023-02-02T06:38:55.671Z,197.18
2023-02-02T06:41:22.795Z,181.55
2023-02-02T06:43:50.201Z,181.20
2023-02-02T06:46:17.586Z,208.85
2023-02-02T06:48:46.079Z,216.57
2023-02-02T06:51:13.203Z,217.10
2023-02-02T06:53:40.332Z,215.30
2023-02-02T06:56:09.133Z,223.95
2023-02-02T06:58:36.286Z,211.57
2023-02-02T07:01:07.913Z,191.40
2023-02-02T07:03:35.223Z,167.90
2023-02-02T07:06:22.747Z,173.73
2023-02-02T07:09:02.248Z,178.68
2023-02-02T07:11:38.216Z,213.85
2023-02-02T07:14:09.966Z,232.75
2023-02-02T07:16:37.323Z,238.10
2023-02-02T07:19:04.706Z,201.05
2023-02-02T07:21:38.310Z,206.70
2023-02-02T07:24:05.994Z,195.18
2023-02-02T07:26:36.816Z,206.35
2023-02-02T07:29:07.377Z,194.93
2023-02-02T07:31:36.643Z,222.70
2023-02-02T07:34:04.014Z,250.75
2023-02-02T07:36:31.332Z,226.63
2023-02-02T07:39:00.750Z,245.23
2023-02-02T07:41:28.097Z,208.00
2023-02-02T07:43:55.358Z,206.48
2023-02-02T07:46:22.693Z,208.18
2023-02-02T07:48:49.921Z,201.70
2023-02-02T07:51:18.119Z,201.73
2023-02-02T07:53:47.580Z,191.88
2023-02-02T07:56:22.764Z,199.60
2023-02-02T07:58:52.349Z,176.13
2023-02-02T08:01:21.455Z,177.77
2023-02-02T08:03:48.931Z,166.95
2023-02-02T08:06:21.905Z,182.25
2023-02-02T08:08:49.458Z,162.50
2023-02-02T08:11:18.370Z,160.00
2023-02-02T08:13:48.607Z,163.65
2023-02-02T08:16:16.204Z,140.68
2023-02-02T08:18:44.474Z,140.88
2023-02-02T08:21:11.843Z,133.13
2023-02-02T08:23:39.497Z,109.88
2023-02-02T08:26:20.903Z,96.32
2023-02-02T08:28:49.491Z,32.63
2023-02-02T08:31:19.394Z,25.60
2023-02-02T08:33:46.609Z,23.60
2023-02-02T08:36:14.683Z,17.88
2023-02-02T08:38:42.015Z,18.65
2023-02-02T08:41:11.011Z,18.15
2023-02-02T08:43:38.420Z,17.95
2023-02-02T08:46:07.062Z,15.85
2023-02-02T08:48:34.909Z,15.20
2023-02-02T08:51:02.890Z,13.00
2023-02-02T08:53:30.147Z,18.85
2023-02-02T08:56:04.403Z,11.13
2023-02-02T08:58:31.939Z,13.50
2023-02-02T09:01:11.962Z,13.35
2023-02-02T09:03:42.096Z,15.15
2023-02-02T09:06:10.925Z,11.07
2023-02-02T09:08:38.209Z,12.88
2023-02-02T09:11:18.392Z,14.43
2023-02-02T09:13:46.724Z,12.30
2023-02-02T09:16:16.256Z,12.73
2023-02-02T09:18:43.659Z,11.82
2023-02-02T09:21:12.464Z,13.68
2023-02-02T09:23:41.088Z,14.15
2023-02-02T09:26:22.007Z,13.18
2023-02-02T09:28:53.757Z,11.68
2023-02-02T09:31:23.495Z,21.08
2023-02-02T09:33:50.925Z,14.30
2023-02-02T09:36:20.914Z,12.63
2023-02-02T09:38:49.524Z,13.35
2023-02-02T09:41:41.365Z,17.08
2023-02-02T09:44:41.288Z,25.40
2023-02-02T09:47:22.813Z,21.27
2023-02-02T09:50:11.884Z,16.00
2023-02-02T09:53:03.450Z,15.30
2023-02-02T09:55:40.823Z,12.48
2023-02-02T09:58:11.403Z,16.45
2023-02-02T10:00:46.125Z,25.10
2023-02-02T10:03:22.590Z,20.80
2023-02-02T10:05:57.367Z,15.02
2023-02-02T10:08:34.890Z,19.13
2023-02-02T10:11:31.439Z,14.40
2023-02-02T10:14:03.001Z,23.85
2023-02-02T10:16:30.631Z,15.93
2023-02-02T10:19:04.775Z,13.27
2023-02-02T10:22:09.023Z,9.52
2023-02-02T10:24:36.330Z,10.73
2023-02-02T10:27:16.987Z,12.70
2023-02-02T10:32:24.846Z,11.48
2023-02-02T10:35:12.526Z,13.63
2023-02-02T10:37:57.422Z,13.63
2023-02-02T10:41:00.496Z,9.50
2023-02-02T10:43:48.886Z,10.18
2023-02-02T10:46:48.811Z,11.27
2023-02-02T10:49:39.292Z,9.93
2023-02-02T10:52:12.234Z,10.70
2023-02-02T10:55:11.687Z,11.90
2023-02-02T10:57:41.896Z,13.38
2023-02-02T11:00:26.099Z,18.75
2023-02-02T11:02:53.877Z,9.82
2023-02-02T11:05:41.900Z,8.70
2023-02-02T11:08:25.363Z,11.88
2023-02-02T11:10:53.407Z,12.00
2023-02-02T11:13:32.951Z,13.45
2023-02-02T11:16:43.104Z,15.13
2023-02-02T11:19:24.831Z,17.45
2023-02-02T11:21:59.294Z,14.65
2023-02-02T11:24:40.798Z,20.52
2023-02-02T11:27:15.757Z,17.45
2023-02-02T11:29:46.000Z,18.08
2023-02-02T11:32:51.691Z,13.63
2023-02-02T11:35:23.685Z,14.95
2023-02-02T11:37:57.751Z,17.77
2023-02-02T11:40:42.765Z,15.27
2023-02-02T11:43:41.492Z,19.77
2023-02-02T11:46:18.068Z,16.58
2023-02-02T11:49:08.611Z,17.85
2023-02-02T11:51:39.344Z,13.45
2023-02-02T11:54:13.282Z,18.15
2023-02-02T11:56:42.800Z,14.27
2023-02-02T11:59:37.766Z,16.55
2023-02-02T12:02:20.509Z,21.10
2023-02-02T12:04:55.119Z,23.17
2023-02-02T12:07:29.724Z,21.17
2023-02-02T12:10:00.552Z,17.00
2023-02-02T12:13:03.820Z,21.25
2023-02-02T12:15:56.668Z,21.88
2023-02-02T12:18:56.516Z,18.55
2023-02-02T12:21:47.672Z,23.52
2023-02-02T12:24:32.911Z,28.45
2023-02-02T12:27:13.885Z,35.15
2023-02-02T12:30:11.404Z,27.98
2023-02-02T12:33:05.122Z,26.98
2023-02-02T12:36:01.773Z,26.20
2023-02-02T12:39:10.088Z,29.30
2023-02-02T12:41:53.070Z,29.98
2023-02-02T12:44:56.508Z,35.97
2023-02-02T12:47:44.632Z,34.38
2023-02-02T12:50:34.304Z,33.75
2023-02-02T12:53:25.573Z,36.33
2023-02-02T12:56:16.915Z,40.03
2023-02-02T12:59:29.748Z,36.83
2023-02-02T13:02:09.224Z,39.80
2023-02-02T13:05:06.695Z,39.75
2023-02-02T13:07:47.658Z,35.70
2023-02-02T13:10:19.965Z,40.05
2023-02-02T13:13:24.779Z,56.88
2023-02-02T13:15:54.969Z,45.78
2023-02-02T13:18:52.331Z,42.92
2023-02-02T13:21:21.030Z,44.53
2023-02-02T13:23:54.373Z,68.05
2023-02-02T13:26:33.033Z,58.17
2023-02-02T13:29:48.196Z,56.58
2023-02-02T13:32:25.623Z,43.92
2023-02-02T13:35:02.886Z,45.78
2023-02-02T13:37:50.445Z,44.78
2023-02-02T13:40:26.810Z,38.05
2023-02-02T13:43:22.906Z,39.15
2023-02-02T13:46:09.100Z,42.88
2023-02-02T13:49:29.506Z,36.20
2023-02-02T13:52:32.223Z,32.63
2023-02-02T13:55:34.783Z,30.45
2023-02-02T14:00:41.722Z,41.20
2023-02-02T14:03:29.972Z,42.40
2023-02-02T14:06:10.582Z,49.33
2023-02-02T14:08:38.037Z,48.58
2023-02-02T14:11:07.970Z,45.75
2023-02-02T14:14:00.473Z,47.60
2023-02-02T14:16:33.414Z,46.78
2023-02-02T14:19:04.952Z,35.53
2023-02-02T14:21:32.507Z,45.08
2023-02-02T14:24:04.707Z,41.10
2023-02-02T14:26:49.368Z,28.58
2023-02-02T14:29:36.482Z,31.65
2023-02-02T14:32:32.808Z,47.60
2023-02-02T14:35:27.113Z,34.08
2023-02-02T14:38:36.761Z,28.00
2023-02-02T14:41:43.316Z,34.85
2023-02-02T14:44:10.826Z,31.83
2023-02-02T14:46:48.246Z,32.22
2023-02-02T14:49:25.995Z,32.00
2023-02-02T14:51:58.289Z,31.48
2023-02-02T14:54:36.618Z,36.67
2023-02-02T14:57:20.736Z,39.17
2023-02-02T14:59:48.068Z,33.60
2023-02-02T15:02:23.776Z,21.00
2023-02-02T15:04:51.641Z,17.27
2023-02-02T15:07:38.527Z,20.92
2023-02-02T15:10:07.342Z,19.70
2023-02-02T15:12:44.109Z,28.73
2023-02-02T15:15:21.580Z,23.55
2023-02-02T15:18:01.182Z,24.13
2023-02-02T15:20:40.713Z,24.00
2023-02-02T15:23:17.571Z,21.15
2023-02-02T15:26:10.304Z,26.13
2023-02-02T15:28:52.412Z,42.40
2023-02-02T15:31:41.301Z,18.70
2023-02-02T15:34:37.809Z,24.38
2023-02-02T15:37:11.129Z,26.98
2023-02-02T15:39:49.490Z,22.30
2023-02-02T15:42:59.918Z,25.35
2023-02-02T15:45:50.539Z,17.08
2023-02-02T15:48:27.031Z,19.00
2023-02-02T15:50:57.728Z,18.13
2023-02-02T15:56:29.918Z,15.98
2023-02-02T15:58:58.918Z,10.77
2023-02-02T16:01:26.926Z,15.20
2023-02-02T16:04:13.759Z,15.70
2023-02-02T16:06:41.171Z,17.05
2023-02-02T16:09:10.594Z,15.70
2023-02-02T16:11:41.685Z,14.57
2023-02-02T16:14:14.285Z,20.20
2023-02-02T16:16:41.770Z,20.95
2023-02-02T16:19:08.999Z,25.75
2023-02-02T16:21:38.380Z,31.92
2023-02-02T16:24:06.820Z,60.17
2023-02-02T16:26:35.503Z,125.95
2023-02-02T16:29:02.980Z,72.45
2023-02-02T16:31:31.563Z,71.65
2023-02-02T16:34:00.792Z,54.28
2023-02-02T16:36:31.998Z,51.00
2023-02-02T16:39:01.165Z,40.10
2023-02-02T16:41:33.840Z,39.35
2023-02-02T16:44:44.081Z,45.97
2023-02-02T16:47:38.051Z,70.88
2023-02-02T16:50:10.666Z,77.07
2023-02-02T16:52:52.319Z,98.53
2023-02-02T16:55:19.777Z,77.45
2023-02-02T16:57:47.453Z,105.43
2023-02-02T17:00:25.699Z,104.32
2023-02-02T17:02:57.549Z,92.00
2023-02-02T17:05:29.101Z,92.05
2023-02-02T17:08:08.046Z,62.90
2023-02-02T17:10:39.766Z,110.75
2023-02-02T17:13:32.506Z,132.88
2023-02-02T17:15:59.921Z,130.65
2023-02-02T17:18:28.406Z,153.43
2023-02-02T17:20:58.168Z,144.00
2023-02-02T17:23:27.156Z,154.30
2023-02-02T17:25:54.277Z,166.25
2023-02-02T17:28:23.714Z,165.65
2023-02-02T17:31:01.442Z,137.05
2023-02-02T17:33:28.718Z,149.75
2023-02-02T17:35:56.699Z,139.25
2023-02-02T17:38:24.608Z,129.88
2023-02-02T17:40:51.967Z,132.73
2023-02-02T17:43:19.100Z,161.65
2023-02-02T17:45:46.485Z,188.27
2023-02-02T17:48:14.693Z,189.65
2023-02-02T17:50:42.154Z,165.00
2023-02-02T17:53:15.700Z,109.78
2023-02-02T17:55:43.478Z,136.55
2023-02-02T17:58:13.277Z,121.32
2023-02-02T18:00:40.844Z,164.83
2023-02-02T18:03:23.782Z,181.10
2023-02-02T18:05:52.395Z,193.35
2023-02-02T18:08:19.778Z,205.30
2023-02-02T18:10:49.121Z,128.80
2023-02-02T18:13:19.725Z,96.35
2023-02-02T18:15:47.113Z,100.85
2023-02-02T18:18:14.209Z,194.20
2023-02-02T18:20:50.685Z,232.93
2023-02-02T18:23:18.317Z,247.60
2023-02-02T18:25:45.968Z,269.48
2023-02-02T18:28:18.178Z,203.52
2023-02-02T18:30:46.970Z,274.80
2023-02-02T18:33:14.730Z,190.85
2023-02-02T18:35:42.783Z,266.27
2023-02-02T18:38:10.046Z,263.23
2023-02-02T18:40:38.477Z,192.35
2023-02-02T18:43:07.843Z,212.13
2023-02-02T18:45:35.921Z,227.65
2023-02-02T18:48:04.157Z,259.63
2023-02-02T18:50:31.432Z,214.45
2023-02-02T18:52:58.957Z,184.93
2023-02-02T18:55:27.357Z,185.07
2023-02-02T18:57:54.897Z,177.40
2023-02-02T19:00:26.179Z,181.73
2023-02-02T19:02:59.040Z,221.25
2023-02-02T19:05:50.162Z,251.18
2023-02-02T19:08:23.686Z,272.20
2023-02-02T19:10:56.209Z,292.35
2023-02-02T19:13:23.252Z,287.58
2023-02-02T19:15:50.459Z,284.25
2023-02-02T19:18:22.335Z,287.58
2023-02-02T19:20:53.200Z,294.17
2023-02-02T19:23:23.889Z,264.48
2023-02-02T19:28:23.726Z,274.77
2023-02-02T19:30:53.425Z,271.98
2023-02-02T19:33:21.049Z,229.10
2023-02-02T19:35:50.165Z,185.30
2023-02-02T19:38:23.251Z,107.83
2023-02-02T19:40:51.703Z,87.82
2023-02-02T19:43:29.862Z,95.40
2023-02-02T19:45:59.258Z,73.57
2023-02-02T19:48:28.919Z,28.35
2023-02-02T19:50:57.331Z,25.60
2023-02-02T19:53:41.205Z,31.30
2023-02-02T19:56:27.203Z,16.10
2023-02-02T19:58:54.785Z,12.52
2023-02-02T20:01:33.951Z,20.63
2023-02-02T20:04:05.047Z,18.05
2023-02-02T20:06:58.695Z,21.95
2023-02-02T20:09:47.889Z,16.08
2023-02-02T20:12:48.111Z,18.40
2023-02-02T20:15:35.294Z,18.45
2023-02-02T20:18:11.980Z,24.90
2023-02-02T20:20:40.366Z,21.80
2023-02-02T20:23:19.470Z,20.75
2023-02-02T20:25:46.766Z,15.07
2023-02-02T20:28:47.688Z,10.60
2023-02-02T20:31:19.729Z,8.68
2023-02-02T20:33:58.028Z,13.25
2023-02-02T20:36:40.935Z,13.05
2023-02-02T20:39:35.908Z,10.63
2023-02-02T20:42:03.203Z,7.90
2023-02-02T20:44:30.762Z,10.15
2023-02-02T20:46:58.518Z,13.02
2023-02-02T20:49:26.852Z,19.58
2023-02-02T20:51:54.843Z,32.22
2023-02-02T20:54:22.836Z,42.72
2023-02-02T20:56:50.396Z,26.05
2023-02-02T20:59:17.627Z,27.27
2023-02-02T21:01:45.080Z,29.02
2023-02-02T21:04:12.217Z,23.38
2023-02-02T21:06:40.209Z,27.23
2023-02-02T21:09:09.264Z,35.38
2023-02-02T21:11:36.404Z,33.10
2023-02-02T21:14:03.591Z,32.50
2023-02-02T21:16:30.684Z,31.15
2023-02-02T21:18:58.189Z,35.40
2023-02-02T21:21:25.479Z,27.20
2023-02-02T21:23:53.052Z,34.35
2023-02-02T21:26:22.313Z,38.88
2023-02-02T21:28:51.190Z,30.20
2023-02-02T21:31:18.799Z,25.05
2023-02-02T21:33:49.242Z,20.20
2023-02-02T21:36:37.912Z,18.88
2023-02-02T21:39:29.875Z,20.60
2023-02-02T21:42:09.720Z,20.08
2023-02-02T21:44:38.488Z,17.88
2023-02-02T21:47:29.204Z,16.17
2023-02-02T21:52:24.001Z,12.68
2023-02-02T21:54:51.292Z,12.20
2023-02-02T21:57:22.777Z,15.77
2023-02-02T21:59:58.822Z,16.98
2023-02-02T22:02:42.569Z,16.85
2023-02-02T22:05:23.178Z,15.10
2023-02-02T22:07:50.762Z,10.20
2023-02-02T22:10:39.149Z,11.95
2023-02-02T22:13:18.976Z,12.63
2023-02-02T22:15:47.616Z,16.65
2023-02-02T22:18:16.574Z,19.48
2023-02-02T22:20:47.032Z,22.17
2023-02-02T22:23:24.748Z,25.55
2023-02-02T22:25:53.532Z,31.30
2023-02-02T22:28:33.085Z,28.23
2023-02-02T22:31:01.073Z,34.17
2023-02-02T22:33:28.335Z,36.65
2023-02-02T22:35:55.346Z,30.30
2023-02-02T22:38:24.074Z,29.80
2023-02-02T22:40:52.524Z,28.30
2023-02-02T22:43:20.272Z,32.22
2023-02-02T22:45:47.471Z,35.55
2023-02-02T22:48:14.874Z,31.08
2023-02-02T22:50:41.888Z,34.30
2023-02-02T22:53:09.078Z,40.05
2023-02-02T22:55:36.536Z,44.05
2023-02-02T22:58:04.108Z,44.78
2023-02-02T23:00:33.120Z,55.88
2023-02-02T23:03:00.466Z,54.58
2023-02-02T23:05:27.900Z,48.22
2023-02-02T23:07:56.840Z,46.80
2023-02-02T23:10:26.115Z,41.63
2023-02-02T23:12:55.120Z,44.83
2023-02-02T23:15:22.634Z,40.70
2023-02-02T23:17:49.880Z,38.35
2023-02-02T23:20:17.137Z,36.65
2023-02-02T23:22:44.303Z,37.13
2023-02-02T23:25:12.183Z,36.45
2023-02-02T23:27:40.469Z,33.63
2023-02-02T23:30:08.402Z,32.28
2023-02-02T23:32:35.708Z,30.17
2023-02-02T23:35:03.188Z,31.70
2023-02-02T23:37:30.236Z,28.63
2023-02-02T23:39:57.317Z,28.60
2023-02-02T23:42:25.805Z,24.85
2023-02-02T23:44:53.102Z,28.50
2023-02-02T23:47:20.197Z,27.60
2023-02-02T23:49:48.624Z,27.50
2023-02-02T23:52:15.687Z,31.13
2023-02-02T23:54:43.104Z,40.55
2023-02-02T23:57:10.200Z,45.90
2023-02-02T23:59:37.464Z,47.38
